Xilin Hot, China
Current Conditions -  °F | °C
As of 2:00 AM on Thursday 29 Jan 2015 (Local Time) from ZBAA Reporting Station
Clear Clear  
Wind Chill: 28°   Ceiling: Unl
Heat Index: 28°   Visibility: 4mi
Dew Point:   Wind: 2mph
Humidity: 40%   Direction: 140°SE
Pressure: 30.42"   Gusts: NA
Location:  43.95°N, 116.07°E
Report Text: ZBAA 281800Z 14001MPS 7000 NSC M02/M14 Q1030 NOSIG
Loading
Personal Weather Stations






























Interactive Weather Map New forecast layout! Learn more

10-Day Weather Forecast

Advertisements
Track Severe Weather on mobile